Ocotillo, California
Current Conditions -  °F | °C
As of 7:56 PM on Wednesday 17 Dec 2014 (Local Time) from KNJK Reporting Station
Haze Haze  
Wind Chill: 13°   Ceiling: 12000
Heat Index: 13°   Visibility: 4mi
Dew Point: 11°   Wind: 0mph
Humidity: 89%   Direction: NA
Pressure: 30.09"   Gusts: NA
Location:  32.74°N, 115.99°W
Report Text: KNJK 180356Z 00000KT 4SM BR FEW065 BKN120 BKN200 13/11 A3009 RMK AO2 SLP206 T01280111 $
Loading
Personal Weather Stations






























Interactive Weather Map New forecast layout! Learn more

10-Day Weather Forecast

Advertisements
Track Severe Weather on mobile